LFBG/CNG METAR and TAF weather

Enter ICAO airport designator
Station Type Date Time Source
LFBG METAR 2020/04/05 06:30 UTC NOAA

LFBG 050630Z AUTO 10006KT CAVOK 10/02 Q1016


Station Type Date Time Source
LFBG Decoded METAR 2020/04/05 06:30 UTC NOAA

Cognac, France (LFBG) 45-40N 000-19W 31M
Apr 05, 2020 - 02:30 AM EDT / 2020.04.05 0630 UTC
Wind: from the E (100 degrees) at 7 MPH (6 KT):0
Visibility: greater than 7 mile(s):0
Temperature: 50 F (10 C)
Dew Point: 35 F (2 C)
Relative Humidity: 57%
Pressure (altimeter): 30.00 in. Hg (1016 hPa)
ob: LFBG 050630Z AUTO 10006KT CAVOK 10/02 Q1016
cycle: 6

Station Type Date Time Source
LFBG TAF 2020/04/03 13:34 UTC NOAA

TAF LFBG 031326Z 0313/0409 CNL

Example: see airport list